createdAt,value
2023-02-14T00:01:59.668Z,82.20
2023-02-14T00:04:26.474Z,82.45
2023-02-14T00:06:53.169Z,82.51
2023-02-14T00:09:26.125Z,82.36
2023-02-14T00:11:55.599Z,82.58
2023-02-14T00:14:41.019Z,82.58
2023-02-14T00:17:12.950Z,82.79
2023-02-14T00:19:39.619Z,82.88
2023-02-14T00:22:06.397Z,83.10
2023-02-14T00:24:38.918Z,82.78
2023-02-14T00:27:08.254Z,82.45
2023-02-14T00:29:34.962Z,82.70
2023-02-14T00:32:07.016Z,82.76
2023-02-14T00:34:36.478Z,82.71
2023-02-14T00:37:07.238Z,82.86
2023-02-14T00:39:38.098Z,82.81
2023-02-14T00:42:04.751Z,83.11
2023-02-14T00:44:33.442Z,83.38
2023-02-14T00:47:00.142Z,83.31
2023-02-14T00:49:26.769Z,83.29
2023-02-14T00:51:53.509Z,83.73
2023-02-14T00:54:20.165Z,83.58
2023-02-14T00:56:46.785Z,83.83
2023-02-14T00:59:16.450Z,83.69
2023-02-14T01:01:43.139Z,83.48
2023-02-14T01:04:09.831Z,83.29
2023-02-14T01:06:38.963Z,83.36
2023-02-14T01:09:05.601Z,83.39
2023-02-14T01:11:32.232Z,83.40
2023-02-14T01:13:59.187Z,83.35
2023-02-14T01:16:27.522Z,83.48
2023-02-14T01:18:54.292Z,83.59
2023-02-14T01:21:27.259Z,83.54
2023-02-14T01:23:56.655Z,83.80
2023-02-14T01:26:26.837Z,83.81
2023-02-14T01:28:55.513Z,83.91
2023-02-14T01:31:27.029Z,84.07
2023-02-14T01:33:54.464Z,83.97
2023-02-14T01:36:26.949Z,83.81
2023-02-14T01:38:57.784Z,83.71
2023-02-14T01:41:28.789Z,83.71
2023-02-14T01:43:59.107Z,83.37
2023-02-14T01:46:31.628Z,83.48
2023-02-14T01:49:20.850Z,83.45
2023-02-14T01:52:04.561Z,83.34
2023-02-14T01:54:37.929Z,83.44
2023-02-14T01:57:09.646Z,83.53
2023-02-14T01:59:45.458Z,83.26
2023-02-14T02:02:12.350Z,83.66
2023-02-14T02:04:44.156Z,83.70
2023-02-14T02:07:17.536Z,83.45
2023-02-14T02:09:50.788Z,83.68
2023-02-14T02:12:24.270Z,83.90
2023-02-14T02:14:57.725Z,83.58
2023-02-14T02:17:41.285Z,83.26
2023-02-14T02:20:30.599Z,83.22
2023-02-14T02:23:12.214Z,83.41
2023-02-14T02:26:15.102Z,83.46
2023-02-14T02:28:44.618Z,83.14
2023-02-14T02:31:20.493Z,83.04
2023-02-14T02:33:53.284Z,82.99
2023-02-14T02:36:42.696Z,83.09
2023-02-14T02:39:18.225Z,83.03
2023-02-14T02:42:08.985Z,83.26
2023-02-14T02:44:52.102Z,83.28
2023-02-14T02:47:44.918Z,83.08
2023-02-14T02:50:43.534Z,83.34
2023-02-14T02:53:40.655Z,83.46
2023-02-14T02:56:44.812Z,83.73
2023-02-14T02:59:21.829Z,83.94
2023-02-14T03:02:19.982Z,83.68
2023-02-14T03:04:55.641Z,83.90
2023-02-14T03:07:39.099Z,83.77
2023-02-14T03:10:08.123Z,83.73
2023-02-14T03:12:34.672Z,83.68
2023-02-14T03:15:03.864Z,83.90
2023-02-14T03:17:59.550Z,83.67
2023-02-14T03:20:50.554Z,83.65
2023-02-14T03:23:52.749Z,83.61
2023-02-14T03:26:36.004Z,83.36
2023-02-14T03:29:40.338Z,83.66
2023-02-14T03:32:14.534Z,83.83
2023-02-14T03:34:58.108Z,83.51
2023-02-14T03:38:11.727Z,83.72
2023-02-14T03:40:46.314Z,83.87
2023-02-14T03:43:20.557Z,83.76
2023-02-14T03:45:55.405Z,83.67
2023-02-14T03:48:24.732Z,83.89
2023-02-14T03:50:52.803Z,83.77
2023-02-14T03:53:24.026Z,84.01
2023-02-14T03:56:08.874Z,83.88
2023-02-14T03:58:38.289Z,84.09
2023-02-14T04:01:20.980Z,83.69
2023-02-14T04:03:48.954Z,83.76
2023-02-14T04:06:18.638Z,83.70
2023-02-14T04:08:45.279Z,84.10
2023-02-14T04:11:15.116Z,84.18
2023-02-14T04:13:44.482Z,84.17
2023-02-14T04:16:11.229Z,83.57
2023-02-14T04:18:56.460Z,83.65
2023-02-14T04:21:26.224Z,83.31
2023-02-14T04:23:52.776Z,83.42
2023-02-14T04:26:19.466Z,83.29
2023-02-14T04:28:46.160Z,83.33
2023-02-14T04:31:18.469Z,83.58
2023-02-14T04:33:48.185Z,83.29
2023-02-14T04:36:17.384Z,83.21
2023-02-14T04:38:43.983Z,83.58
2023-02-14T04:41:10.675Z,83.91
2023-02-14T04:43:39.531Z,83.71
2023-02-14T04:46:07.665Z,83.81
2023-02-14T04:48:34.383Z,84.07
2023-02-14T04:51:05.676Z,83.98
2023-02-14T04:53:32.335Z,84.01
2023-02-14T04:55:58.937Z,83.73
2023-02-14T04:58:27.988Z,83.63
2023-02-14T05:00:57.782Z,83.89
2023-02-14T05:03:26.107Z,83.92
2023-02-14T05:06:05.189Z,84.12
2023-02-14T05:08:31.781Z,84.04
2023-02-14T05:11:01.083Z,84.02
2023-02-14T05:13:33.769Z,84.20
2023-02-14T05:16:03.627Z,84.30
2023-02-14T05:18:30.448Z,84.21
2023-02-14T05:20:57.741Z,84.34
2023-02-14T05:23:26.151Z,84.30
2023-02-14T05:25:52.930Z,84.46
2023-02-14T05:28:24.196Z,84.47
2023-02-14T05:30:54.056Z,84.53
2023-02-14T05:33:20.740Z,84.64
2023-02-14T05:35:47.481Z,84.38
2023-02-14T05:38:16.881Z,84.39
2023-02-14T05:40:44.372Z,84.58
2023-02-14T05:43:16.139Z,84.55
2023-02-14T05:45:45.472Z,84.15
2023-02-14T05:48:12.221Z,84.62
2023-02-14T05:50:47.499Z,84.49
2023-02-14T05:53:16.581Z,84.41
2023-02-14T05:55:43.287Z,84.68
2023-02-14T05:58:10.142Z,84.53
2023-02-14T06:00:38.857Z,84.45
2023-02-14T06:03:06.750Z,84.42
2023-02-14T06:05:35.906Z,84.56
2023-02-14T06:08:05.160Z,84.57
2023-02-14T06:10:34.617Z,84.54
2023-02-14T06:13:01.376Z,84.47
2023-02-14T06:15:30.567Z,84.48
2023-02-14T06:18:00.356Z,84.34
2023-02-14T06:20:27.726Z,84.28
2023-02-14T06:22:55.172Z,84.47
2023-02-14T06:25:23.013Z,84.59
2023-02-14T06:27:49.896Z,84.51
2023-02-14T06:30:20.860Z,84.26
2023-02-14T06:32:47.467Z,84.58
2023-02-14T06:35:17.708Z,84.51
2023-02-14T06:37:45.407Z,84.38
2023-02-14T06:40:13.070Z,84.37
2023-02-14T06:42:40.520Z,84.30
2023-02-14T06:45:07.930Z,84.41
2023-02-14T06:47:36.311Z,84.37
2023-02-14T06:50:06.397Z,84.38
2023-02-14T06:52:34.533Z,84.18
2023-02-14T06:55:01.561Z,84.31
2023-02-14T06:57:35.349Z,84.37
2023-02-14T07:00:03.471Z,84.31
2023-02-14T07:02:30.144Z,84.04
2023-02-14T07:05:10.390Z,83.95
2023-02-14T07:07:37.077Z,83.93
2023-02-14T07:10:04.181Z,84.03
2023-02-14T07:12:30.888Z,83.50
2023-02-14T07:15:02.814Z,83.13
2023-02-14T07:17:31.724Z,83.10
2023-02-14T07:20:00.710Z,83.08
2023-02-14T07:22:28.613Z,83.18
2023-02-14T07:24:56.171Z,83.17
2023-02-14T07:27:22.834Z,83.03
2023-02-14T07:29:49.577Z,82.71
2023-02-14T07:32:22.599Z,82.52
2023-02-14T07:34:50.312Z,82.20
2023-02-14T07:37:20.548Z,82.26
2023-02-14T07:39:52.601Z,82.26
2023-02-14T07:42:19.246Z,82.09
2023-02-14T07:44:51.124Z,82.04
2023-02-14T07:47:17.793Z,81.96
2023-02-14T07:49:44.464Z,81.95
2023-02-14T07:52:16.824Z,81.95
2023-02-14T07:54:46.450Z,81.88
2023-02-14T07:57:15.466Z,82.08
2023-02-14T07:59:42.128Z,81.66
2023-02-14T08:02:12.834Z,81.46
2023-02-14T08:04:39.536Z,81.42
2023-02-14T08:07:08.378Z,81.33
2023-02-14T08:09:36.254Z,81.19
2023-02-14T08:12:21.605Z,81.09
2023-02-14T08:14:48.301Z,81.06
2023-02-14T08:17:14.989Z,80.89
2023-02-14T08:19:41.834Z,80.76
2023-02-14T08:22:08.658Z,80.57
2023-02-14T08:24:35.372Z,80.50
2023-02-14T08:27:02.220Z,80.41
2023-02-14T08:29:28.847Z,80.42
2023-02-14T08:31:55.625Z,80.34
2023-02-14T08:34:22.255Z,80.41
2023-02-14T08:36:48.867Z,80.37
2023-02-14T08:39:15.568Z,80.19
2023-02-14T08:41:42.264Z,80.09
2023-02-14T08:44:08.907Z,80.30
2023-02-14T08:46:35.887Z,79.89
2023-02-14T08:49:02.563Z,79.90
2023-02-14T08:51:29.316Z,79.91
2023-02-14T08:53:59.005Z,79.86
2023-02-14T08:56:25.750Z,79.86
2023-02-14T08:58:55.498Z,79.82
2023-02-14T09:01:22.913Z,79.55
2023-02-14T09:03:50.026Z,79.59
2023-02-14T09:06:17.902Z,79.49
2023-02-14T09:08:46.557Z,79.34
2023-02-14T09:11:19.208Z,79.31
2023-02-14T09:13:46.695Z,79.16
2023-02-14T09:16:17.526Z,79.01
2023-02-14T09:18:45.621Z,78.92
2023-02-14T09:21:15.767Z,78.75
2023-02-14T09:23:43.018Z,78.83
2023-02-14T09:26:12.426Z,78.95
2023-02-14T09:28:39.414Z,78.47
2023-02-14T09:31:18.955Z,78.39
2023-02-14T09:33:46.885Z,78.42
2023-02-14T09:36:16.206Z,78.64
2023-02-14T09:38:43.290Z,78.61
2023-02-14T09:41:16.989Z,78.63
2023-02-14T09:43:55.858Z,78.59
2023-02-14T09:46:29.014Z,78.51
2023-02-14T09:48:57.369Z,78.46
2023-02-14T09:51:29.329Z,78.15
2023-02-14T09:54:04.012Z,78.32
2023-02-14T09:56:51.544Z,78.05
2023-02-14T09:59:34.506Z,77.94
2023-02-14T10:02:26.509Z,77.62
2023-02-14T10:05:28.350Z,77.41
2023-02-14T10:08:05.324Z,77.13
2023-02-14T10:10:39.758Z,76.77
2023-02-14T10:13:06.526Z,76.17
2023-02-14T10:18:42.737Z,75.52
2023-02-14T10:21:19.402Z,75.31
2023-02-14T10:23:53.516Z,75.22
2023-02-14T10:26:44.272Z,74.97
2023-02-14T10:29:27.317Z,75.09
2023-02-14T10:32:02.626Z,74.75
2023-02-14T10:34:48.742Z,74.22
2023-02-14T10:37:21.531Z,74.28
2023-02-14T10:40:06.836Z,74.37
2023-02-14T10:42:59.954Z,74.82
2023-02-14T10:45:45.492Z,74.95
2023-02-14T10:48:21.492Z,74.93
2023-02-14T10:51:15.778Z,74.97
2023-02-14T10:54:00.704Z,74.87
2023-02-14T10:56:35.825Z,74.78
2023-02-14T10:59:17.342Z,74.63
2023-02-14T11:01:44.717Z,74.32
2023-02-14T11:04:14.197Z,73.97
2023-02-14T11:06:40.884Z,74.01
2023-02-14T11:09:12.268Z,74.34
2023-02-14T11:11:59.729Z,74.71
2023-02-14T11:14:30.186Z,74.91
2023-02-14T11:16:58.850Z,74.81
2023-02-14T11:19:37.288Z,74.64
2023-02-14T11:22:04.728Z,74.79
2023-02-14T11:24:41.672Z,74.62
2023-02-14T11:27:18.057Z,74.25
2023-02-14T11:29:53.138Z,74.49
2023-02-14T11:32:28.777Z,74.50
2023-02-14T11:35:07.080Z,74.42
2023-02-14T11:37:45.773Z,74.22
2023-02-14T11:40:32.327Z,74.41
2023-02-14T11:43:17.378Z,74.40
2023-02-14T11:45:46.045Z,74.32
2023-02-14T11:48:17.766Z,74.28
2023-02-14T11:51:07.205Z,74.56
2023-02-14T11:53:56.044Z,74.57
2023-02-14T11:56:24.364Z,74.69
2023-02-14T11:59:06.028Z,74.91
2023-02-14T12:01:35.557Z,74.96
2023-02-14T12:04:07.498Z,74.98
2023-02-14T12:06:36.664Z,75.05
2023-02-14T12:09:21.818Z,75.09
2023-02-14T12:12:01.757Z,75.43
2023-02-14T12:14:31.125Z,75.35
2023-02-14T12:17:06.954Z,75.62
2023-02-14T12:19:47.318Z,75.32
2023-02-14T12:22:19.717Z,75.37
2023-02-14T12:24:53.059Z,75.23
2023-02-14T12:27:24.964Z,75.47
2023-02-14T12:30:00.646Z,75.64
2023-02-14T12:32:32.426Z,75.87
2023-02-14T12:35:07.318Z,76.02
2023-02-14T12:38:07.483Z,76.08
2023-02-14T12:40:43.152Z,76.02
2023-02-14T12:43:45.189Z,75.93
2023-02-14T12:49:29.215Z,75.49
2023-02-14T12:52:50.169Z,75.34
2023-02-14T12:55:35.072Z,75.59
2023-02-14T12:58:22.828Z,75.75
2023-02-14T13:01:08.200Z,75.46
2023-02-14T13:04:21.480Z,75.23
2023-02-14T13:06:50.343Z,74.85
2023-02-14T13:09:36.991Z,74.49
2023-02-14T13:12:26.152Z,74.57
2023-02-14T13:15:12.001Z,74.46
2023-02-14T13:17:42.459Z,74.43
2023-02-14T13:20:42.632Z,73.53
2023-02-14T13:23:23.270Z,74.01
2023-02-14T13:25:56.245Z,74.09
2023-02-14T13:28:24.177Z,74.24
2023-02-14T13:30:51.077Z,74.50
2023-02-14T13:33:28.185Z,74.72
2023-02-14T13:36:02.845Z,74.43
2023-02-14T13:38:32.028Z,74.75
2023-02-14T13:41:01.245Z,74.95
2023-02-14T13:43:50.403Z,75.35
2023-02-14T13:46:42.423Z,75.29
2023-02-14T13:49:28.152Z,75.50
2023-02-14T13:51:57.762Z,75.19
2023-02-14T13:54:31.082Z,75.16
2023-02-14T13:57:00.002Z,75.31
2023-02-14T13:59:33.968Z,75.45
2023-02-14T14:02:31.722Z,75.67
2023-02-14T14:04:58.639Z,75.19
2023-02-14T14:07:31.792Z,75.29
2023-02-14T14:10:02.221Z,75.60
2023-02-14T14:12:29.398Z,75.63
2023-02-14T14:15:08.280Z,75.86
2023-02-14T14:17:41.804Z,76.05
2023-02-14T14:20:20.681Z,76.03
2023-02-14T14:23:01.321Z,75.98
2023-02-14T14:25:41.109Z,76.20
2023-02-14T14:28:24.304Z,76.31
2023-02-14T14:30:54.717Z,76.51
2023-02-14T14:33:29.505Z,76.21
2023-02-14T14:36:08.623Z,76.43
2023-02-14T14:38:46.923Z,76.45
2023-02-14T14:41:14.020Z,76.51
2023-02-14T14:43:41.476Z,76.87
2023-02-14T14:46:12.410Z,77.04
2023-02-14T14:48:51.169Z,77.01
2023-02-14T14:51:34.441Z,77.44
2023-02-14T14:54:05.091Z,77.68
2023-02-14T14:56:37.142Z,77.82
2023-02-14T14:59:17.305Z,78.18
2023-02-14T15:01:44.879Z,78.26
2023-02-14T15:04:16.590Z,78.17
2023-02-14T15:06:44.127Z,78.20
2023-02-14T15:09:24.005Z,78.61
2023-02-14T15:12:11.281Z,78.69
2023-02-14T15:14:42.267Z,78.67
2023-02-14T15:17:25.529Z,78.78
2023-02-14T15:19:59.968Z,78.82
2023-02-14T15:22:29.720Z,78.91
2023-02-14T15:24:58.048Z,78.88
2023-02-14T15:27:30.627Z,78.73
2023-02-14T15:29:58.782Z,78.33
2023-02-14T15:32:27.977Z,77.96
2023-02-14T15:34:55.863Z,78.02
2023-02-14T15:37:24.181Z,77.74
2023-02-14T15:39:56.278Z,78.09
2023-02-14T15:42:25.978Z,78.10
2023-02-14T15:45:22.889Z,77.98
2023-02-14T15:47:55.790Z,77.83
2023-02-14T15:50:26.211Z,77.87
2023-02-14T15:52:58.477Z,78.15
2023-02-14T15:55:27.175Z,77.81
2023-02-14T15:58:02.986Z,77.66
2023-02-14T16:00:31.677Z,77.55
2023-02-14T16:03:12.596Z,77.34
2023-02-14T16:05:46.749Z,77.71
2023-02-14T16:08:39.576Z,77.81
2023-02-14T16:11:15.989Z,77.60
2023-02-14T16:13:45.289Z,77.58
2023-02-14T16:16:15.467Z,77.72
2023-02-14T16:18:50.308Z,77.52
2023-02-14T16:21:27.438Z,77.50
2023-02-14T16:24:12.264Z,77.18
2023-02-14T16:26:42.648Z,76.90
2023-02-14T16:29:14.972Z,76.99
2023-02-14T16:32:14.731Z,77.05
2023-02-14T16:34:41.211Z,77.11
2023-02-14T16:37:30.812Z,77.27
2023-02-14T16:40:00.384Z,77.40
2023-02-14T16:42:28.370Z,77.60
2023-02-14T16:44:55.589Z,77.63
2023-02-14T16:47:22.568Z,77.29
2023-02-14T16:49:58.003Z,77.28
2023-02-14T16:52:56.222Z,77.17
2023-02-14T16:55:23.246Z,77.19
2023-02-14T16:57:53.232Z,76.72
2023-02-14T17:00:21.585Z,76.77
2023-02-14T17:02:51.550Z,76.27
2023-02-14T17:05:18.503Z,76.54
2023-02-14T17:07:49.150Z,76.56
2023-02-14T17:10:20.592Z,76.59
2023-02-14T17:12:49.111Z,76.52
2023-02-14T17:15:19.204Z,76.53
2023-02-14T17:17:48.845Z,76.69
2023-02-14T17:20:15.909Z,76.74
2023-02-14T17:22:42.660Z,76.81
2023-02-14T17:25:11.180Z,76.60
2023-02-14T17:27:38.617Z,76.59
2023-02-14T17:30:05.877Z,76.69
2023-02-14T17:32:33.892Z,76.85
2023-02-14T17:35:03.557Z,77.24
2023-02-14T17:37:31.735Z,77.24
2023-02-14T17:40:00.864Z,77.20
2023-02-14T17:42:27.757Z,76.75
2023-02-14T17:44:54.458Z,76.72
2023-02-14T17:47:21.151Z,76.96
2023-02-14T17:49:47.794Z,77.17
2023-02-14T17:52:15.827Z,77.18
2023-02-14T17:54:42.894Z,76.88
2023-02-14T17:57:09.873Z,77.05
2023-02-14T17:59:36.845Z,77.14
2023-02-14T18:02:03.928Z,77.14
2023-02-14T18:04:30.957Z,77.23
2023-02-14T18:06:57.566Z,77.11
2023-02-14T18:09:25.803Z,77.41
2023-02-14T18:11:52.673Z,77.10
2023-02-14T18:14:19.453Z,76.76
2023-02-14T18:16:46.470Z,77.06
2023-02-14T18:19:16.092Z,77.35
2023-02-14T18:21:47.246Z,77.49
2023-02-14T18:24:15.634Z,77.26
2023-02-14T18:26:43.554Z,77.31
2023-02-14T18:29:12.179Z,77.54
2023-02-14T18:31:44.088Z,77.88
2023-02-14T18:34:10.922Z,77.83
2023-02-14T18:36:40.135Z,78.01
2023-02-14T18:39:07.172Z,78.21
2023-02-14T18:41:35.826Z,78.26
2023-02-14T18:44:04.489Z,78.16
2023-02-14T18:46:37.629Z,78.33
2023-02-14T18:49:09.580Z,78.58
2023-02-14T18:51:39.733Z,78.24
2023-02-14T18:54:07.040Z,78.23
2023-02-14T18:56:36.355Z,78.21
2023-02-14T18:59:06.557Z,78.40
2023-02-14T19:01:36.911Z,78.54
2023-02-14T19:04:06.394Z,78.60
2023-02-14T19:06:34.192Z,78.81
2023-02-14T19:09:02.589Z,78.82
2023-02-14T19:11:32.108Z,78.53
2023-02-14T19:14:02.562Z,78.68
2023-02-14T19:16:36.948Z,79.04
2023-02-14T19:19:03.740Z,79.22
2023-02-14T19:21:35.679Z,78.94
2023-02-14T19:24:06.897Z,79.04
2023-02-14T19:26:37.786Z,79.13
2023-02-14T19:29:07.815Z,79.09
2023-02-14T19:31:37.601Z,79.12
2023-02-14T19:34:06.374Z,79.12
2023-02-14T19:36:36.386Z,79.20
2023-02-14T19:39:04.031Z,79.30
2023-02-14T19:41:37.074Z,79.33
2023-02-14T19:44:05.981Z,79.54
2023-02-14T19:46:33.722Z,79.14
2023-02-14T19:49:01.815Z,79.38
2023-02-14T19:51:36.090Z,79.48
2023-02-14T19:54:09.793Z,79.56
2023-02-14T19:56:39.477Z,79.62
2023-02-14T19:59:09.598Z,79.54
2023-02-14T20:01:45.618Z,79.65
2023-02-14T20:04:15.551Z,79.96
2023-02-14T20:06:43.435Z,79.92
2023-02-14T20:09:10.628Z,79.83
2023-02-14T20:11:52.374Z,79.68
2023-02-14T20:14:43.667Z,79.98
2023-02-14T20:17:17.228Z,80.32
2023-02-14T20:19:43.838Z,80.20
2023-02-14T20:22:10.568Z,79.95
2023-02-14T20:24:37.170Z,80.35
2023-02-14T20:27:04.056Z,80.31
2023-02-14T20:29:30.923Z,80.09
2023-02-14T20:32:00.075Z,80.22
2023-02-14T20:34:27.289Z,80.78
2023-02-14T20:36:55.675Z,80.45
2023-02-14T20:39:30.329Z,80.53
2023-02-14T20:41:57.161Z,80.58
2023-02-14T20:44:24.248Z,80.51
2023-02-14T20:46:53.445Z,80.68
2023-02-14T20:49:21.932Z,80.79
2023-02-14T20:51:50.034Z,81.18
2023-02-14T20:54:18.318Z,81.27
2023-02-14T20:56:46.012Z,81.27
2023-02-14T20:59:13.040Z,81.40
2023-02-14T21:01:40.071Z,81.62
2023-02-14T21:04:07.078Z,81.81
2023-02-14T21:06:35.523Z,81.50
2023-02-14T21:09:02.815Z,81.49
2023-02-14T21:11:29.567Z,81.53
2023-02-14T21:13:59.903Z,81.50
2023-02-14T21:16:27.447Z,81.62
2023-02-14T21:18:58.997Z,81.71
2023-02-14T21:21:32.473Z,81.96
2023-02-14T21:24:01.384Z,81.98
2023-02-14T21:26:29.069Z,82.12
2023-02-14T21:28:55.898Z,82.17
2023-02-14T21:31:25.532Z,82.36
2023-02-14T21:33:54.698Z,82.46
2023-02-14T21:36:23.720Z,82.60
2023-02-14T21:38:51.112Z,82.43
2023-02-14T21:41:22.868Z,82.75
2023-02-14T21:43:55.257Z,83.05
2023-02-14T21:46:27.380Z,82.94
2023-02-14T21:49:13.632Z,83.22
2023-02-14T21:51:41.014Z,83.36
2023-02-14T21:54:08.799Z,83.33
2023-02-14T21:56:36.915Z,83.60
2023-02-14T21:59:04.058Z,83.53
2023-02-14T22:01:34.363Z,83.38
2023-02-14T22:04:01.379Z,83.41
2023-02-14T22:06:28.842Z,83.56
2023-02-14T22:08:57.867Z,83.54
2023-02-14T22:11:26.740Z,84.09
2023-02-14T22:13:53.525Z,83.83
2023-02-14T22:16:22.278Z,83.97
2023-02-14T22:18:49.140Z,84.18
2023-02-14T22:21:19.067Z,84.09
2023-02-14T22:23:45.753Z,84.05
2023-02-14T22:26:19.880Z,84.23
2023-02-14T22:28:48.180Z,84.00
2023-02-14T22:31:16.230Z,83.77
2023-02-14T22:33:43.456Z,83.91
2023-02-14T22:36:10.925Z,84.00
2023-02-14T22:38:39.023Z,83.91
2023-02-14T22:41:11.471Z,84.04
2023-02-14T22:43:39.736Z,84.03
2023-02-14T22:46:09.922Z,84.00
2023-02-14T22:48:37.628Z,84.17
2023-02-14T22:51:07.479Z,84.31
2023-02-14T22:53:34.470Z,84.48
2023-02-14T22:56:12.932Z,84.57
2023-02-14T22:58:40.127Z,84.60
2023-02-14T23:01:06.943Z,84.59
2023-02-14T23:03:33.724Z,84.67
2023-02-14T23:06:00.899Z,84.74
2023-02-14T23:08:27.723Z,84.80
2023-02-14T23:10:54.334Z,84.68
2023-02-14T23:13:39.482Z,84.77
2023-02-14T23:16:24.725Z,84.84
2023-02-14T23:19:10.059Z,85.13
2023-02-14T23:21:54.669Z,85.02
2023-02-14T23:24:24.350Z,84.80
2023-02-14T23:26:51.704Z,84.83
2023-02-14T23:29:18.354Z,85.02
2023-02-14T23:31:45.348Z,85.06
2023-02-14T23:34:12.069Z,85.20
2023-02-14T23:36:38.894Z,85.24
2023-02-14T23:39:06.246Z,85.09
2023-02-14T23:41:48.054Z,85.26
2023-02-14T23:44:15.789Z,85.28
2023-02-14T23:46:42.650Z,85.30
2023-02-14T23:49:10.071Z,85.31
2023-02-14T23:51:39.552Z,85.28
2023-02-14T23:54:07.001Z,85.51
2023-02-14T23:56:34.482Z,85.48
2023-02-14T23:59:04.528Z,85.26
